Time;durP1;ratioP1;P1;durP2;ratioP2;P2;SDS_P1;SDS_P2;PMS_P1;PMS_P2;Temp;Humidity;BMP_temperature;BMP_pressure;BME280_temperature;BME280_humidity;BME280_pressure;Samples;Min_cycle;Max_cycle;Signal;HPM_P1;HPM_P2
2022/03/08 00:01:28;;;;;;;18.50;7.97;;;;;;;;;;5108578;27;20032;-75
2022/03/08 00:03:53;;;;;;;17.65;8.30;;;;;;;;;;5105534;27;20030;-74
2022/03/08 00:06:19;;;;;;;19.42;7.78;;;;;;;;;;5104656;27;20254;-75
2022/03/08 00:08:44;;;;;;;17.70;7.50;;;;;;;;;;5094538;27;20039;-76
2022/03/08 00:11:10;;;;;;;23.35;7.57;;;;;;;;;;5106116;27;20069;-75
2022/03/08 00:13:35;;;;;;;18.90;7.15;;;;;;;;;;5104806;27;20055;-75
2022/03/08 00:16:01;;;;;;;16.55;7.13;;;;;;;;;;5101759;27;20028;-75
2022/03/08 00:18:26;;;;;;;16.20;7.18;;;;;;;;;;5104476;27;20088;-75
2022/03/08 00:20:52;;;;;;;17.63;7.30;;;;;;;;;;5100326;28;20059;-75
2022/03/08 00:23:17;;;;;;;16.95;6.68;;;;;;;;;;5100275;27;20036;-76
2022/03/08 00:25:43;;;;;;;20.60;7.30;;;;;;;;;;5107153;27;20031;-76
2022/03/08 00:28:08;;;;;;;10.60;3.95;;;;;;;;;;5107748;27;20035;-76
2022/03/08 00:30:33;;;;;;;21.77;8.05;;;;;;;;;;5102281;27;20019;-74
2022/03/08 00:32:59;;;;;;;19.67;8.00;;;;;;;;;;5089160;28;20043;-74
2022/03/08 00:35:25;;;;;;;19.23;7.40;;;;;;;;;;5092074;28;20048;-75
2022/03/08 00:37:52;;;;;;;16.50;7.88;;;;;;;;;;5093757;27;20039;-75
2022/03/08 00:40:20;;;;;;;17.45;7.18;;;;;;;;;;5107255;27;20016;-75
2022/03/08 00:42:45;;;;;;;17.35;7.65;;;;;;;;;;5106151;28;20095;-75
2022/03/08 00:45:11;;;;;;;18.45;7.80;;;;;;;;;;5108006;28;20115;-75
2022/03/08 00:47:41;;;;;;;17.92;7.18;;;;;;;;;;5106370;27;20448;-76
2022/03/08 00:50:10;;;;;;;16.98;7.38;;;;;;;;;;5104536;27;20535;-76
2022/03/08 00:52:35;;;;;;;19.00;7.45;;;;;;;;;;5105098;27;20036;-75
2022/03/08 00:55:02;;;;;;;16.98;7.38;;;;;;;;;;5106274;27;20389;-75
2022/03/08 00:57:27;;;;;;;19.00;8.05;;;;;;;;;;5097818;28;20024;-75
2022/03/08 00:59:52;;;;;;;18.77;7.35;;;;;;;;;;5106615;27;20065;-76
2022/03/08 01:02:18;;;;;;;17.10;7.70;;;;;;;;;;5098054;28;20130;-75
2022/03/08 01:04:43;;;;;;;16.27;7.30;;;;;;;;;;5106651;27;20040;-75
2022/03/08 01:07:09;;;;;;;22.45;7.43;;;;;;;;;;5106878;27;20027;-75
2022/03/08 01:09:34;;;;;;;18.27;7.18;;;;;;;;;;5105793;28;20123;-76
2022/03/08 01:12:00;;;;;;;16.40;7.15;;;;;;;;;;5102143;27;20028;-75
2022/03/08 01:14:25;;;;;;;18.73;7.47;;;;;;;;;;5118160;27;20043;-75
2022/03/08 01:16:51;;;;;;;19.75;8.10;;;;;;;;;;5108132;27;20035;-75
2022/03/08 01:19:16;;;;;;;20.50;8.18;;;;;;;;;;5100803;27;20404;-76
2022/03/08 01:21:42;;;;;;;18.23;7.55;;;;;;;;;;5112119;27;20485;-76
2022/03/08 01:24:07;;;;;;;21.35;8.65;;;;;;;;;;5120383;27;20024;-75
2022/03/08 01:26:33;;;;;;;20.27;8.43;;;;;;;;;;5101377;28;20517;-75
2022/03/08 01:28:59;;;;;;;20.40;7.18;;;;;;;;;;5108774;27;20023;-75
2022/03/08 01:31:25;;;;;;;23.90;8.02;;;;;;;;;;5105562;27;20492;-75
2022/03/08 01:33:50;;;;;;;16.30;7.10;;;;;;;;;;5101314;27;20111;-75
2022/03/08 01:36:16;;;;;;;22.25;8.02;;;;;;;;;;5112562;27;20032;-75
2022/03/08 01:38:41;;;;;;;15.15;6.78;;;;;;;;;;5102806;27;20028;-75
2022/03/08 01:41:07;;;;;;;18.38;7.82;;;;;;;;;;5093561;28;20080;-74
2022/03/08 01:43:33;;;;;;;16.65;7.32;;;;;;;;;;5079847;28;20145;-76
2022/03/08 01:45:58;;;;;;;21.23;8.15;;;;;;;;;;5106657;27;20019;-74
2022/03/08 01:48:23;;;;;;;22.67;8.15;;;;;;;;;;5112962;28;20073;-75
2022/03/08 01:50:49;;;;;;;15.90;6.35;;;;;;;;;;5108323;27;20114;-76
2022/03/08 01:53:14;;;;;;;17.85;7.10;;;;;;;;;;5107670;27;20140;-75
2022/03/08 01:55:40;;;;;;;14.57;6.85;;;;;;;;;;5121681;27;20035;-75
2022/03/08 01:58:05;;;;;;;15.15;7.07;;;;;;;;;;5104283;27;20032;-78
2022/03/08 02:00:31;;;;;;;20.85;8.18;;;;;;;;;;5103507;28;20031;-75
2022/03/08 02:02:58;;;;;;;17.83;7.28;;;;;;;;;;5098276;28;20051;-75
2022/03/08 02:05:25;;;;;;;19.65;6.40;;;;;;;;;;5105527;27;20036;-76
2022/03/08 02:07:50;;;;;;;14.93;6.15;;;;;;;;;;5100592;28;20052;-75
2022/03/08 02:10:15;;;;;;;8.82;4.03;;;;;;;;;;5107338;27;20030;-75
2022/03/08 02:12:41;;;;;;;21.67;8.02;;;;;;;;;;5107679;27;20028;-74
2022/03/08 02:15:17;;;;;;;20.40;7.55;;;;;;;;;;5106468;28;20400;-76
2022/03/08 02:17:43;;;;;;;17.83;7.63;;;;;;;;;;5098821;27;20039;-76
2022/03/08 02:20:10;;;;;;;19.58;8.52;;;;;;;;;;5107550;28;20100;-75
2022/03/08 02:22:36;;;;;;;21.05;8.27;;;;;;;;;;5122289;27;20039;-76
2022/03/08 02:25:03;;;;;;;18.10;8.05;;;;;;;;;;5111582;28;20047;-75
2022/03/08 02:27:29;;;;;;;16.83;7.15;;;;;;;;;;5100770;28;20481;-75
2022/03/08 02:29:56;;;;;;;18.95;7.68;;;;;;;;;;5114977;27;20428;-75
2022/03/08 02:32:23;;;;;;;21.55;8.57;;;;;;;;;;5101156;28;20035;-75
2022/03/08 02:34:48;;;;;;;18.20;7.25;;;;;;;;;;5103029;27;20054;-75
2022/03/08 02:37:13;;;;;;;20.67;7.97;;;;;;;;;;5103978;27;20476;-75
2022/03/08 02:39:40;;;;;;;19.83;7.72;;;;;;;;;;5113187;28;20082;-76
2022/03/08 02:42:06;;;;;;;20.13;7.93;;;;;;;;;;5106113;27;20047;-75
2022/03/08 02:44:32;;;;;;;21.58;7.40;;;;;;;;;;5093379;28;20058;-75
2022/03/08 02:47:01;;;;;;;18.08;7.35;;;;;;;;;;5097551;28;20036;-76
2022/03/08 02:49:27;;;;;;;20.10;7.82;;;;;;;;;;5080254;28;20044;-75
2022/03/08 02:51:53;;;;;;;19.75;7.50;;;;;;;;;;5072423;28;20033;-75
2022/03/08 02:54:18;;;;;;;27.80;8.65;;;;;;;;;;5086999;28;20040;-75
2022/03/08 02:56:43;;;;;;;25.13;9.73;;;;;;;;;;5085987;28;20050;-75
2022/03/08 02:59:09;;;;;;;21.58;9.63;;;;;;;;;;5084789;28;20044;-75
2022/03/08 03:01:34;;;;;;;29.10;10.07;;;;;;;;;;5085331;28;20059;-75
2022/03/08 03:03:59;;;;;;;26.00;10.38;;;;;;;;;;5085311;28;20024;-75
2022/03/08 03:06:25;;;;;;;18.95;9.52;;;;;;;;;;5091544;28;20016;-75
2022/03/08 03:08:50;;;;;;;24.33;10.00;;;;;;;;;;5085688;28;20047;-76
2022/03/08 03:11:16;;;;;;;26.52;10.10;;;;;;;;;;5091171;28;20060;-75
2022/03/08 03:13:41;;;;;;;26.75;10.32;;;;;;;;;;5091767;28;20036;-76
2022/03/08 03:16:06;;;;;;;33.20;11.20;;;;;;;;;;5089969;28;20089;-75
2022/03/08 03:18:32;;;;;;;26.38;9.57;;;;;;;;;;5089913;28;20036;-75
2022/03/08 03:20:57;;;;;;;22.27;9.15;;;;;;;;;;5090242;28;20071;-75
2022/03/08 03:23:22;;;;;;;23.75;8.13;;;;;;;;;;5090782;28;20036;-75
2022/03/08 03:25:47;;;;;;;26.48;8.38;;;;;;;;;;5088320;28;20036;-75
2022/03/08 03:28:13;;;;;;;24.40;8.43;;;;;;;;;;5090489;28;20064;-75
2022/03/08 03:30:38;;;;;;;24.90;8.93;;;;;;;;;;5088797;28;20093;-74
2022/03/08 03:33:04;;;;;;;20.75;7.32;;;;;;;;;;5102053;28;20509;-75
2022/03/08 03:35:30;;;;;;;25.20;9.00;;;;;;;;;;5084226;28;20040;-76
2022/03/08 03:37:55;;;;;;;23.05;8.38;;;;;;;;;;5094104;27;20039;-74
2022/03/08 03:40:21;;;;;;;21.00;8.02;;;;;;;;;;5093824;28;20047;-76
2022/03/08 03:42:46;;;;;;;15.18;6.65;;;;;;;;;;5095314;28;20023;-75
2022/03/08 03:45:12;;;;;;;17.48;7.72;;;;;;;;;;5105730;27;20028;-75
2022/03/08 03:47:37;;;;;;;20.50;8.02;;;;;;;;;;5093591;28;20045;-75
2022/03/08 03:50:07;;;;;;;22.85;7.55;;;;;;;;;;5099538;28;20043;-74
2022/03/08 03:52:32;;;;;;;21.75;8.23;;;;;;;;;;5105303;27;20034;-75
2022/03/08 03:54:58;;;;;;;20.85;8.23;;;;;;;;;;5108178;27;20031;-75
2022/03/08 03:57:23;;;;;;;22.90;8.50;;;;;;;;;;5110151;27;20047;-75
2022/03/08 03:59:48;;;;;;;22.52;8.48;;;;;;;;;;5101547;27;20061;-76
2022/03/08 04:02:14;;;;;;;17.85;7.75;;;;;;;;;;5098081;27;20050;-76
2022/03/08 04:04:39;;;;;;;19.98;9.02;;;;;;;;;;5094332;28;20056;-76
2022/03/08 04:07:05;;;;;;;22.30;7.38;;;;;;;;;;5106271;27;20032;-74
2022/03/08 04:09:30;;;;;;;18.55;7.97;;;;;;;;;;5109655;27;20015;-75
2022/03/08 04:11:56;;;;;;;20.38;7.80;;;;;;;;;;5105891;28;20047;-75
2022/03/08 04:14:21;;;;;;;18.13;6.70;;;;;;;;;;5105409;28;20462;-75
2022/03/08 04:16:46;;;;;;;17.48;6.85;;;;;;;;;;5098656;27;20032;-76
2022/03/08 04:19:12;;;;;;;19.30;7.78;;;;;;;;;;5106471;27;20031;-75
2022/03/08 04:21:38;;;;;;;15.95;7.15;;;;;;;;;;5098364;28;20028;-75
2022/03/08 04:24:04;;;;;;;13.77;5.80;;;;;;;;;;5108681;27;20427;-75
2022/03/08 04:26:29;;;;;;;17.90;7.10;;;;;;;;;;5109644;27;20496;-74
2022/03/08 04:28:54;;;;;;;14.73;4.78;;;;;;;;;;5107119;28;20062;-75
2022/03/08 04:31:20;;;;;;;17.80;6.78;;;;;;;;;;5105758;27;20036;-75
2022/03/08 04:33:45;;;;;;;21.08;7.05;;;;;;;;;;5104560;28;20043;-74
2022/03/08 04:36:10;;;;;;;17.25;7.55;;;;;;;;;;5107221;27;20051;-75
2022/03/08 04:38:36;;;;;;;14.40;6.65;;;;;;;;;;5107217;27;20088;-75
2022/03/08 04:41:02;;;;;;;16.83;6.15;;;;;;;;;;5104754;28;20077;-74
2022/03/08 04:43:29;;;;;;;18.40;6.68;;;;;;;;;;5100733;28;20035;-75
2022/03/08 04:45:54;;;;;;;19.05;7.10;;;;;;;;;;5101768;28;20024;-74
2022/03/08 04:48:20;;;;;;;18.85;7.47;;;;;;;;;;5105421;28;20032;-74
2022/03/08 04:50:45;;;;;;;18.33;7.15;;;;;;;;;;5095736;28;20051;-75
2022/03/08 04:53:10;;;;;;;10.45;5.70;;;;;;;;;;5106728;27;20039;-75
2022/03/08 04:55:36;;;;;;;14.70;6.43;;;;;;;;;;5111272;27;20054;-75
2022/03/08 04:58:01;;;;;;;17.80;7.63;;;;;;;;;;5105673;27;20056;-74
2022/03/08 05:00:26;;;;;;;30.63;8.27;;;;;;;;;;5098946;28;20023;-74
2022/03/08 05:02:52;;;;;;;23.63;8.48;;;;;;;;;;5099877;27;20067;-75
2022/03/08 05:05:17;;;;;;;20.88;7.53;;;;;;;;;;5089281;28;20069;-74
2022/03/08 05:07:43;;;;;;;18.33;7.80;;;;;;;;;;5095658;27;20059;-74
2022/03/08 05:10:10;;;;;;;18.42;7.30;;;;;;;;;;5090204;27;20507;-74
2022/03/08 05:12:36;;;;;;;17.63;7.82;;;;;;;;;;5091333;28;20517;-75
2022/03/08 05:15:03;;;;;;;21.42;7.90;;;;;;;;;;5106035;27;20110;-75
2022/03/08 05:17:29;;;;;;;20.17;8.20;;;;;;;;;;5099370;27;20027;-74
2022/03/08 05:19:54;;;;;;;19.90;8.27;;;;;;;;;;5100165;28;20043;-74
2022/03/08 05:22:19;;;;;;;18.73;7.60;;;;;;;;;;5078610;28;20032;-74
2022/03/08 05:24:45;;;;;;;17.63;7.72;;;;;;;;;;5083944;28;20028;-76
2022/03/08 05:27:10;;;;;;;21.48;8.32;;;;;;;;;;5071173;28;20458;-74
2022/03/08 05:29:36;;;;;;;14.45;6.88;;;;;;;;;;5088289;28;20046;-75
2022/03/08 05:32:01;;;;;;;18.02;6.97;;;;;;;;;;5095421;28;20615;-75
2022/03/08 05:34:27;;;;;;;19.38;7.05;;;;;;;;;;5101667;28;20106;-74
2022/03/08 05:36:52;;;;;;;22.65;7.05;;;;;;;;;;5102329;28;20031;-74
2022/03/08 05:39:18;;;;;;;17.33;6.80;;;;;;;;;;5102942;27;20507;-74
2022/03/08 05:41:43;;;;;;;21.70;7.68;;;;;;;;;;5108166;27;20032;-75
2022/03/08 05:44:09;;;;;;;18.92;7.22;;;;;;;;;;5117830;27;20039;-74
2022/03/08 05:46:34;;;;;;;21.88;8.82;;;;;;;;;;5107395;27;20119;-74
2022/03/08 05:48:59;;;;;;;19.75;8.32;;;;;;;;;;5095285;27;20031;-74
2022/03/08 05:51:25;;;;;;;15.18;7.03;;;;;;;;;;5103234;27;20032;-74
2022/03/08 05:53:50;;;;;;;16.23;6.93;;;;;;;;;;5107445;28;20046;-72
2022/03/08 05:56:15;;;;;;;20.35;7.63;;;;;;;;;;5106334;28;20039;-75
2022/03/08 05:58:41;;;;;;;22.85;8.30;;;;;;;;;;5094836;27;20172;-75
2022/03/08 06:01:06;;;;;;;18.83;7.35;;;;;;;;;;5086249;28;20027;-75
2022/03/08 06:03:31;;;;;;;17.80;7.25;;;;;;;;;;5102660;28;20714;-76
2022/03/08 06:05:57;;;;;;;23.83;8.70;;;;;;;;;;5125607;27;20039;-76
2022/03/08 06:08:22;;;;;;;17.00;7.05;;;;;;;;;;5122495;27;20122;-75
2022/03/08 06:10:47;;;;;;;26.20;7.88;;;;;;;;;;5113383;27;20027;-76
2022/03/08 06:13:13;;;;;;;12.75;6.50;;;;;;;;;;5106953;27;20295;-75
2022/03/08 06:15:38;;;;;;;16.67;6.88;;;;;;;;;;5105639;28;20107;-75
2022/03/08 06:18:03;;;;;;;23.23;7.68;;;;;;;;;;5105457;27;20517;-75
2022/03/08 06:20:29;;;;;;;20.83;7.63;;;;;;;;;;5094586;27;20043;-75
2022/03/08 06:22:54;;;;;;;19.75;7.82;;;;;;;;;;5095928;28;20144;-75
2022/03/08 06:25:20;;;;;;;19.83;7.35;;;;;;;;;;5109362;27;20039;-76
2022/03/08 06:27:45;;;;;;;16.40;7.63;;;;;;;;;;5109434;28;20040;-75
2022/03/08 06:30:11;;;;;;;18.83;6.57;;;;;;;;;;5108893;28;20050;-75
2022/03/08 06:32:36;;;;;;;15.57;6.20;;;;;;;;;;5108553;27;20074;-76
2022/03/08 06:35:02;;;;;;;20.77;8.05;;;;;;;;;;5099991;28;20057;-76
2022/03/08 06:37:27;;;;;;;18.67;7.70;;;;;;;;;;5108222;27;20038;-75
2022/03/08 06:39:53;;;;;;;22.30;7.35;;;;;;;;;;5130654;27;20031;-76
2022/03/08 06:42:18;;;;;;;17.55;7.38;;;;;;;;;;5124313;27;20042;-75
2022/03/08 06:44:44;;;;;;;19.33;7.00;;;;;;;;;;5107224;27;20623;-75
2022/03/08 06:47:10;;;;;;;16.80;7.07;;;;;;;;;;5107287;27;20047;-75
2022/03/08 06:49:41;;;;;;;17.92;7.10;;;;;;;;;;5109257;27;20040;-75
2022/03/08 06:52:08;;;;;;;16.92;6.15;;;;;;;;;;5113934;27;20542;-75
2022/03/08 06:54:34;;;;;;;14.48;6.20;;;;;;;;;;5123853;27;20027;-75
2022/03/08 06:56:59;;;;;;;19.50;7.57;;;;;;;;;;5110753;27;20024;-75
2022/03/08 06:59:25;;;;;;;21.58;7.40;;;;;;;;;;5111932;27;20115;-75
2022/03/08 07:01:51;;;;;;;11.48;5.00;;;;;;;;;;5123352;27;20081;-75
2022/03/08 07:04:17;;;;;;;13.57;5.55;;;;;;;;;;5116069;27;20019;-75
2022/03/08 07:06:43;;;;;;;15.20;6.60;;;;;;;;;;5124639;27;20039;-75
2022/03/08 07:09:09;;;;;;;19.60;7.10;;;;;;;;;;5116871;27;20032;-75
2022/03/08 07:11:36;;;;;;;17.65;8.00;;;;;;;;;;5108233;27;20503;-75
2022/03/08 07:14:04;;;;;;;19.10;8.27;;;;;;;;;;5106591;27;20035;-74
2022/03/08 07:16:29;;;;;;;18.50;7.70;;;;;;;;;;5102918;27;20040;-75
2022/03/08 07:18:55;;;;;;;18.48;6.38;;;;;;;;;;5108390;27;20020;-76
2022/03/08 07:21:21;;;;;;;16.25;7.85;;;;;;;;;;5109597;27;20642;-76
2022/03/08 07:23:46;;;;;;;18.30;6.68;;;;;;;;;;5109809;27;20039;-75
2022/03/08 07:26:11;;;;;;;18.77;6.85;;;;;;;;;;5092887;28;20093;-75
2022/03/08 07:28:37;;;;;;;23.80;7.22;;;;;;;;;;5088936;28;20032;-75
2022/03/08 07:31:03;;;;;;;25.10;8.25;;;;;;;;;;5093726;28;20442;-75
2022/03/08 07:33:29;;;;;;;21.17;7.07;;;;;;;;;;5087562;28;20819;-75
2022/03/08 07:35:54;;;;;;;21.30;7.38;;;;;;;;;;5082446;28;20041;-75
2022/03/08 07:38:19;;;;;;;14.88;4.85;;;;;;;;;;5099744;27;20043;-75
2022/03/08 07:40:45;;;;;;;11.63;4.85;;;;;;;;;;5086418;27;20598;-75
2022/03/08 07:43:10;;;;;;;15.57;6.50;;;;;;;;;;5088998;27;20047;-75
2022/03/08 07:45:36;;;;;;;13.73;5.93;;;;;;;;;;5081562;28;20012;-75
2022/03/08 07:48:04;;;;;;;18.88;7.72;;;;;;;;;;5097866;28;20044;-75
2022/03/08 07:50:31;;;;;;;20.05;7.20;;;;;;;;;;5084516;28;20043;-76
2022/03/08 07:52:59;;;;;;;13.45;5.90;;;;;;;;;;5086277;28;20086;-75
2022/03/08 07:55:26;;;;;;;12.18;5.50;;;;;;;;;;5116280;27;20058;-75
2022/03/08 07:57:51;;;;;;;17.83;6.43;;;;;;;;;;5107671;28;20041;-75
2022/03/08 08:00:16;;;;;;;14.75;7.10;;;;;;;;;;5108411;27;20031;-75
2022/03/08 08:02:41;;;;;;;15.80;7.05;;;;;;;;;;5107705;28;20032;-75
2022/03/08 08:05:07;;;;;;;14.38;5.93;;;;;;;;;;5116395;27;20027;-76
2022/03/08 08:07:33;;;;;;;15.82;6.75;;;;;;;;;;5098764;27;20139;-75
2022/03/08 08:10:00;;;;;;;18.23;6.95;;;;;;;;;;5105941;28;20015;-75
2022/03/08 08:12:26;;;;;;;11.38;4.75;;;;;;;;;;5082183;28;20526;-75
2022/03/08 08:14:51;;;;;;;21.00;6.22;;;;;;;;;;5088266;28;20116;-76
2022/03/08 08:17:18;;;;;;;8.70;4.70;;;;;;;;;;5089226;28;20127;-75
2022/03/08 08:19:43;;;;;;;17.73;7.38;;;;;;;;;;5082033;28;20059;-75
2022/03/08 08:22:09;;;;;;;20.65;8.38;;;;;;;;;;5086064;28;20112;-75
2022/03/08 08:24:35;;;;;;;15.82;7.13;;;;;;;;;;5089265;28;20020;-76
2022/03/08 08:27:01;;;;;;;16.48;6.57;;;;;;;;;;5091138;28;20528;-76
2022/03/08 08:29:26;;;;;;;16.42;6.95;;;;;;;;;;5095023;28;20504;-76
2022/03/08 08:31:52;;;;;;;19.90;8.43;;;;;;;;;;5088271;28;20115;-75
2022/03/08 08:34:17;;;;;;;14.55;6.13;;;;;;;;;;5082921;27;20021;-75
2022/03/08 08:36:46;;;;;;;19.33;6.90;;;;;;;;;;5086760;28;20447;-76
2022/03/08 08:39:12;;;;;;;16.95;7.47;;;;;;;;;;5083211;28;20044;-76
2022/03/08 08:41:37;;;;;;;13.27;6.97;;;;;;;;;;5088679;28;20024;-76
2022/03/08 08:44:02;;;;;;;19.83;7.63;;;;;;;;;;5092210;28;20032;-76
2022/03/08 08:46:28;;;;;;;13.30;6.40;;;;;;;;;;5092877;27;20447;-76
2022/03/08 08:48:53;;;;;;;22.45;6.97;;;;;;;;;;5106128;27;20024;-76
2022/03/08 08:51:18;;;;;;;16.38;7.55;;;;;;;;;;5102084;28;20028;-76
2022/03/08 08:53:44;;;;;;;22.70;9.48;;;;;;;;;;5108803;27;20035;-76
2022/03/08 08:56:09;;;;;;;22.23;9.00;;;;;;;;;;5109610;27;20528;-75
2022/03/08 08:58:35;;;;;;;18.27;7.35;;;;;;;;;;5108463;27;20455;-76
2022/03/08 09:01:00;;;;;;;15.30;6.18;;;;;;;;;;5108967;27;20035;-76
2022/03/08 09:03:25;;;;;;;15.93;6.55;;;;;;;;;;5114419;27;20020;-76
2022/03/08 09:05:50;;;;;;;16.40;7.03;;;;;;;;;;5109341;27;20067;-76
2022/03/08 09:08:22;;;;;;;20.00;9.48;;;;;;;;;;5095988;28;20040;-78
2022/03/08 09:10:47;;;;;;;18.27;7.32;;;;;;;;;;5077214;28;20047;-76
2022/03/08 09:13:12;;;;;;;15.25;7.38;;;;;;;;;;5095149;28;20024;-77
2022/03/08 09:15:38;;;;;;;17.63;7.93;;;;;;;;;;5074110;28;20036;-77
2022/03/08 09:18:05;;;;;;;21.15;8.77;;;;;;;;;;5073260;28;20085;-77
2022/03/08 09:20:31;;;;;;;15.82;7.13;;;;;;;;;;5080038;28;20056;-77
2022/03/08 09:22:56;;;;;;;12.50;6.15;;;;;;;;;;5074274;28;20059;-77
2022/03/08 09:25:22;;;;;;;14.85;6.03;;;;;;;;;;5074971;28;20115;-77
2022/03/08 09:27:48;;;;;;;16.02;7.10;;;;;;;;;;5076022;28;20051;-78
2022/03/08 09:30:14;;;;;;;21.33;11.07;;;;;;;;;;5073915;28;20485;-77
2022/03/08 09:32:39;;;;;;;19.63;7.53;;;;;;;;;;5074873;28;20560;-78
2022/03/08 09:35:05;;;;;;;20.92;8.48;;;;;;;;;;5076200;28;20040;-76
2022/03/08 09:37:30;;;;;;;14.98;6.75;;;;;;;;;;5070191;28;20043;-75
2022/03/08 09:39:56;;;;;;;21.08;8.35;;;;;;;;;;5079205;28;20038;-77
2022/03/08 09:42:21;;;;;;;21.42;6.45;;;;;;;;;;5084936;28;20071;-77
2022/03/08 09:44:48;;;;;;;20.60;8.00;;;;;;;;;;5086183;28;20036;-77
2022/03/08 09:47:17;;;;;;;17.60;6.88;;;;;;;;;;5079065;28;20051;-78
2022/03/08 09:49:42;;;;;;;19.08;9.07;;;;;;;;;;5082552;28;20032;-77
2022/03/08 09:52:08;;;;;;;18.58;8.35;;;;;;;;;;5074283;28;20032;-76
2022/03/08 09:54:34;;;;;;;22.95;11.40;;;;;;;;;;5080637;28;20031;-77
2022/03/08 09:57:06;;;;;;;22.08;8.90;;;;;;;;;;5082882;28;20036;-78
2022/03/08 09:59:31;;;;;;;21.23;8.60;;;;;;;;;;5098454;27;20061;-76
2022/03/08 10:01:57;;;;;;;16.63;8.00;;;;;;;;;;5101252;28;20520;-77
2022/03/08 10:04:22;;;;;;;16.77;7.85;;;;;;;;;;5097824;28;20042;-78
2022/03/08 10:06:47;;;;;;;19.77;7.90;;;;;;;;;;5100524;28;20477;-77
2022/03/08 10:09:21;;;;;;;18.90;7.68;;;;;;;;;;5103904;28;20032;-77
2022/03/08 10:11:51;;;;;;;15.40;5.80;;;;;;;;;;5097098;27;20551;-77
2022/03/08 10:14:36;;;;;;;18.75;7.85;;;;;;;;;;5103230;27;20046;-78
2022/03/08 10:17:02;;;;;;;17.38;7.57;;;;;;;;;;5102372;27;20414;-77
2022/03/08 10:19:28;;;;;;;18.25;7.05;;;;;;;;;;5113118;27;20035;-77
2022/03/08 10:21:55;;;;;;;15.05;7.28;;;;;;;;;;5108611;28;20035;-78
2022/03/08 10:24:26;;;;;;;21.50;9.52;;;;;;;;;;5105805;28;20028;-77
2022/03/08 10:27:00;;;;;;;20.23;8.85;;;;;;;;;;5105769;27;20047;-77
2022/03/08 10:29:36;;;;;;;19.55;7.28;;;;;;;;;;5112404;27;20032;-78
2022/03/08 10:32:09;;;;;;;18.48;8.30;;;;;;;;;;5098296;28;20036;-78
2022/03/08 10:34:36;;;;;;;23.85;9.45;;;;;;;;;;5105903;27;20050;-77
2022/03/08 10:37:13;;;;;;;21.83;9.73;;;;;;;;;;5104851;28;20035;-77
2022/03/08 10:40:00;;;;;;;24.65;10.23;;;;;;;;;;5109132;28;20078;-77
2022/03/08 10:42:33;;;;;;;16.50;7.57;;;;;;;;;;5080605;28;20529;-77
2022/03/08 10:45:08;;;;;;;19.75;8.73;;;;;;;;;;5092570;28;20040;-78
2022/03/08 10:47:42;;;;;;;23.02;9.93;;;;;;;;;;5093449;27;20131;-78
2022/03/08 10:50:10;;;;;;;13.95;5.80;;;;;;;;;;5095574;27;20105;-78
2022/03/08 10:52:37;;;;;;;18.08;9.18;;;;;;;;;;5087328;27;20068;-77
2022/03/08 10:55:11;;;;;;;19.15;8.32;;;;;;;;;;5111900;27;20106;-76
2022/03/08 10:57:38;;;;;;;20.33;8.02;;;;;;;;;;5105477;28;20046;-77
2022/03/08 11:00:11;;;;;;;14.63;7.30;;;;;;;;;;5095979;28;20413;-78
2022/03/08 11:02:50;;;;;;;20.98;8.77;;;;;;;;;;5103419;28;20093;-77
2022/03/08 11:05:16;;;;;;;14.63;6.75;;;;;;;;;;5106825;27;20628;-75
2022/03/08 11:07:42;;;;;;;21.23;9.70;;;;;;;;;;5119323;27;20035;-76
2022/03/08 11:10:09;;;;;;;16.83;8.48;;;;;;;;;;5108132;28;20027;-76
2022/03/08 11:12:38;;;;;;;15.82;7.32;;;;;;;;;;5106901;27;20081;-76
2022/03/08 11:15:06;;;;;;;20.20;9.98;;;;;;;;;;5093346;28;20042;-75
2022/03/08 11:17:37;;;;;;;8.95;5.45;;;;;;;;;;5108276;27;20042;-75
2022/03/08 11:20:05;;;;;;;20.17;9.57;;;;;;;;;;5109084;28;20051;-76
2022/03/08 11:22:31;;;;;;;20.58;8.90;;;;;;;;;;5095646;28;20106;-76
2022/03/08 11:24:56;;;;;;;24.20;10.57;;;;;;;;;;5102565;28;20102;-75
2022/03/08 11:27:22;;;;;;;19.30;8.55;;;;;;;;;;5108224;28;20043;-75
2022/03/08 11:29:49;;;;;;;21.65;8.93;;;;;;;;;;5103975;28;20128;-75
2022/03/08 11:32:29;;;;;;;19.15;9.05;;;;;;;;;;5102935;27;20040;-77
2022/03/08 11:35:00;;;;;;;17.90;7.15;;;;;;;;;;5098625;28;20063;-77
2022/03/08 11:37:29;;;;;;;22.17;9.00;;;;;;;;;;5094244;28;20040;-78
2022/03/08 11:40:05;;;;;;;23.85;8.60;;;;;;;;;;5093390;28;20047;-77
2022/03/08 11:42:31;;;;;;;21.02;9.15;;;;;;;;;;5088567;28;20397;-76
2022/03/08 11:45:24;;;;;;;21.50;10.52;;;;;;;;;;5088276;28;20034;-77
2022/03/08 11:47:55;;;;;;;18.48;8.55;;;;;;;;;;5082166;28;20044;-76
2022/03/08 11:50:44;;;;;;;19.30;8.80;;;;;;;;;;5088505;28;20043;-74
2022/03/08 11:53:12;;;;;;;16.55;8.73;;;;;;;;;;5095280;28;20097;-74
2022/03/08 11:55:44;;;;;;;21.13;9.43;;;;;;;;;;5097519;27;20519;-75
2022/03/08 11:58:19;;;;;;;22.17;10.15;;;;;;;;;;5099561;27;20052;-76
2022/03/08 12:00:44;;;;;;;22.58;10.50;;;;;;;;;;5104657;27;20476;-76
2022/03/08 12:03:18;;;;;;;20.25;9.18;;;;;;;;;;5109060;28;20036;-76
2022/03/08 12:06:03;;;;;;;20.33;9.43;;;;;;;;;;5106620;28;20035;-76
2022/03/08 12:08:29;;;;;;;21.83;9.57;;;;;;;;;;5112541;27;20500;-76
2022/03/08 12:11:03;;;;;;;22.38;9.57;;;;;;;;;;5105401;27;20068;-76
2022/03/08 12:13:32;;;;;;;20.45;9.32;;;;;;;;;;5105854;28;20031;-76
2022/03/08 12:16:09;;;;;;;19.02;8.65;;;;;;;;;;5089276;28;20020;-76
2022/03/08 12:18:40;;;;;;;18.85;9.85;;;;;;;;;;5079474;28;20060;-76
2022/03/08 12:21:19;;;;;;;21.10;10.18;;;;;;;;;;5090152;27;20050;-76
2022/03/08 12:23:48;;;;;;;21.20;9.27;;;;;;;;;;5081752;28;20861;-76
2022/03/08 12:26:34;;;;;;;21.25;11.63;;;;;;;;;;5074773;27;20036;-76
2022/03/08 12:29:20;;;;;;;20.45;8.85;;;;;;;;;;5082242;28;20123;-76
2022/03/08 12:32:06;;;;;;;18.58;9.52;;;;;;;;;;5121108;27;20036;-76
2022/03/08 12:34:38;;;;;;;22.20;10.20;;;;;;;;;;5085410;28;20096;-76
2022/03/08 12:37:11;;;;;;;21.58;9.43;;;;;;;;;;5099076;27;20062;-76
2022/03/08 12:40:03;;;;;;;23.95;9.98;;;;;;;;;;5096273;28;20136;-76
2022/03/08 12:42:36;;;;;;;21.98;8.68;;;;;;;;;;5099014;28;20493;-76
2022/03/08 12:45:04;;;;;;;20.50;10.23;;;;;;;;;;5087791;28;20036;-76
2022/03/08 12:47:32;;;;;;;20.60;8.40;;;;;;;;;;5098584;27;20508;-76
2022/03/08 12:50:01;;;;;;;19.25;8.38;;;;;;;;;;5099201;28;20560;-75
2022/03/08 12:52:28;;;;;;;25.77;11.30;;;;;;;;;;5101507;28;20035;-77
2022/03/08 12:54:55;;;;;;;25.73;10.20;;;;;;;;;;5105430;27;20036;-77
2022/03/08 12:57:23;;;;;;;24.00;10.60;;;;;;;;;;5104738;28;20066;-76
2022/03/08 12:59:51;;;;;;;21.38;10.48;;;;;;;;;;5102608;27;20472;-76
2022/03/08 13:02:20;;;;;;;20.08;9.23;;;;;;;;;;5106194;27;20127;-76
2022/03/08 13:04:47;;;;;;;23.40;11.05;;;;;;;;;;5102504;27;20517;-76
2022/03/08 13:07:16;;;;;;;19.58;7.90;;;;;;;;;;5097983;27;20073;-76
2022/03/08 13:09:53;;;;;;;20.60;9.65;;;;;;;;;;5103781;28;20032;-80
2022/03/08 13:12:21;;;;;;;21.48;10.38;;;;;;;;;;5101576;27;20470;-77
2022/03/08 13:15:06;;;;;;;22.23;9.13;;;;;;;;;;5106361;27;20031;-77
2022/03/08 13:17:32;;;;;;;19.42;9.68;;;;;;;;;;5104359;28;20036;-77
2022/03/08 13:19:57;;;;;;;25.25;10.88;;;;;;;;;;5101270;28;20432;-77
2022/03/08 13:22:23;;;;;;;25.50;10.30;;;;;;;;;;5104637;27;20055;-77
2022/03/08 13:25:10;;;;;;;23.17;9.73;;;;;;;;;;5105246;28;20079;-77
2022/03/08 13:27:57;;;;;;;20.67;10.35;;;;;;;;;;5078521;28;20055;-77
2022/03/08 13:30:27;;;;;;;22.20;9.40;;;;;;;;;;5080751;28;20040;-76
2022/03/08 13:33:30;;;;;;;21.85;10.18;;;;;;;;;;5084001;28;20105;-77
2022/03/08 13:36:06;;;;;;;20.67;9.60;;;;;;;;;;5068452;28;20533;-76
2022/03/08 13:38:37;;;;;;;13.05;7.03;;;;;;;;;;5095228;27;20039;-77
2022/03/08 13:41:12;;;;;;;21.35;10.18;;;;;;;;;;5095191;27;20046;-77
2022/03/08 13:43:39;;;;;;;19.38;8.68;;;;;;;;;;5100360;28;20088;-77
2022/03/08 13:46:09;;;;;;;21.88;10.43;;;;;;;;;;5098613;27;20039;-77
2022/03/08 13:48:39;;;;;;;19.35;9.38;;;;;;;;;;5102127;28;20028;-77
2022/03/08 13:51:08;;;;;;;19.42;8.63;;;;;;;;;;5104624;27;20101;-77
2022/03/08 13:53:34;;;;;;;23.23;9.50;;;;;;;;;;5092144;27;20044;-77
2022/03/08 13:56:00;;;;;;;22.38;9.05;;;;;;;;;;5098922;27;20052;-78
2022/03/08 13:58:31;;;;;;;15.93;7.57;;;;;;;;;;5095680;27;20051;-77
2022/03/08 14:00:57;;;;;;;26.85;10.63;;;;;;;;;;5090754;28;20086;-76
2022/03/08 14:03:22;;;;;;;20.70;8.73;;;;;;;;;;5103959;27;20059;-77
2022/03/08 14:05:53;;;;;;;20.33;9.18;;;;;;;;;;5110723;27;20040;-77
2022/03/08 14:08:33;;;;;;;21.15;9.68;;;;;;;;;;5103479;27;20131;-77
2022/03/08 14:11:07;;;;;;;19.63;9.13;;;;;;;;;;5086828;28;20048;-78
2022/03/08 14:13:48;;;;;;;20.77;9.60;;;;;;;;;;5104519;27;20045;-77
2022/03/08 14:16:14;;;;;;;21.52;9.57;;;;;;;;;;5102896;27;20049;-77
2022/03/08 14:18:53;;;;;;;21.05;10.25;;;;;;;;;;5076596;28;20028;-77
2022/03/08 14:21:37;;;;;;;18.70;8.35;;;;;;;;;;5080769;28;20517;-77
2022/03/08 14:24:14;;;;;;;20.63;9.02;;;;;;;;;;5098839;28;20039;-77
2022/03/08 14:26:56;;;;;;;19.33;8.48;;;;;;;;;;5106138;27;20536;-77
2022/03/08 14:29:22;;;;;;;17.30;9.00;;;;;;;;;;5100913;28;20043;-77
2022/03/08 14:31:51;;;;;;;27.67;12.60;;;;;;;;;;5103868;27;20036;-77